»·PEaware :: N535XG KWHP-KCNO

N535XG :: KWHP-KCNO

FLIGHT INFORMATION

Flight Status: Arrived
Operator: Privately registered:
United States
More flights under this callsign
Pilot: Slade E. (12022)
Aircraft: PIPER PA-28R-201 ARROW
(P28R)
More flights by this aircraft type
Origin: KWHP Whiteman
United States
Destination: KCNO Chino
United States
More flights between these airports :: More routes between these airports
Route: WHITE1 VNY V186 PDZ
File this flight plan on PilotEdge
Remarks: +CW /
Altitude:
(Current/Filed)
5,000ft
Speed:
(Current/Filed)
130kts
Departed: 01-Jul-19 02:05 PM
Arrived: 01-Jul-19 02:51 PM
Distance/Time
Traveled:
42nm/0:46
Distance/Time
To Go:
Arrived

Flight Plot

Page will automatically refresh every two minutes.

Flight plan parsing failed; only flown route is shown


Map Options




Map Legend


Flown Route
Filed Route
Departure Airport
Arrival Airport
Navaid (VOR, NDB)
Fix

Horizontal Profiles

Position Reports

Time Latitude Longitude Heading Altitude Ground
Speed
01-Jul-19 13:45 34.263145 -118.414264 228 1014ft 0kts
01-Jul-19 13:46 34.263145 -118.414264 228 1014ft 0kts
01-Jul-19 13:47 34.263145 -118.414264 228 1014ft 0kts
01-Jul-19 13:48 34.263145 -118.414264 228 1014ft 0kts
01-Jul-19 13:49 34.263145 -118.414264 228 1014ft 0kts
01-Jul-19 13:50 34.263145 -118.414264 228 1014ft 0kts
01-Jul-19 13:51 34.263145 -118.414264 228 1014ft 0kts
01-Jul-19 13:52 34.263145 -118.414264 228 1014ft 0kts
01-Jul-19 13:53 34.263145 -118.414264 228 1014ft 0kts
01-Jul-19 13:54 34.263145 -118.414264 228 1014ft 0kts
01-Jul-19 13:55 34.263145 -118.414264 228 1014ft 0kts
01-Jul-19 13:56 34.263145 -118.414264 228 1014ft 0kts
01-Jul-19 13:57 34.263145 -118.414264 228 1014ft 0kts
01-Jul-19 13:58 34.263144 -118.414266 228 1014ft 0kts
01-Jul-19 13:59 34.261153 -118.414156 231 1014ft 14kts
01-Jul-19 14:00 34.258892 -118.412322 132 1014ft 12kts
01-Jul-19 14:01 34.256060 -118.409378 135 1014ft 12kts
01-Jul-19 14:02 34.255713 -118.408958 155 1014ft 0kts
01-Jul-19 14:03 34.255291 -118.408980 238 1014ft 11kts
01-Jul-19 14:04 34.266355 -118.426356 273 1548ft 83kts
01-Jul-19 14:05 34.266995 -118.455029 271 2470ft 84kts
01-Jul-19 14:06 34.268274 -118.482750 268 3327ft 81kts
01-Jul-19 14:07 34.268189 -118.510397 271 4105ft 81kts
01-Jul-19 14:08 34.286426 -118.525747 285 4778ft 86kts
01-Jul-19 14:09 34.262794 -118.525021 143 5069ft 128kts
01-Jul-19 14:10 34.232683 -118.495826 142 5064ft 139kts
01-Jul-19 14:11 34.212222 -118.454955 111 5064ft 141kts
01-Jul-19 14:12 34.197651 -118.408810 110 5064ft 141kts
01-Jul-19 14:13 34.183641 -118.364024 110 5028ft 141kts
01-Jul-19 14:14 34.172559 -118.328636 110 5028ft 141kts
01-Jul-19 14:15 34.158790 -118.284718 110 5064ft 140kts
01-Jul-19 14:16 34.144730 -118.239948 110 5064ft 141kts
01-Jul-19 14:17 34.130690 -118.195456 111 5064ft 141kts
01-Jul-19 14:18 34.116474 -118.150957 110 5065ft 141kts
01-Jul-19 14:19 34.102360 -118.106223 110 5065ft 141kts
01-Jul-19 14:20 34.088307 -118.061668 110 5065ft 141kts
01-Jul-19 14:21 34.074187 -118.016935 110 5065ft 141kts
01-Jul-19 14:22 34.060059 -117.972359 110 5065ft 141kts
01-Jul-19 14:23 34.045955 -117.927926 110 5065ft 141kts
01-Jul-19 14:24 34.031787 -117.883356 110 5065ft 141kts
01-Jul-19 14:25 34.017616 -117.838848 110 5065ft 141kts
01-Jul-19 14:26 34.003239 -117.794390 110 5065ft 141kts
01-Jul-19 14:27 33.988982 -117.749809 110 5065ft 141kts
01-Jul-19 14:28 33.974785 -117.705570 110 4999ft 140kts
01-Jul-19 14:29 33.960675 -117.661595 111 4662ft 139kts
01-Jul-19 14:30 33.946952 -117.618876 111 4501ft 129kts
01-Jul-19 14:31 33.934017 -117.578647 111 4503ft 127kts
01-Jul-19 14:32 33.921319 -117.539090 109 4501ft 123kts
01-Jul-19 14:33 33.929337 -117.500247 67 4503ft 120kts
01-Jul-19 14:34 33.941030 -117.462454 67 4503ft 120kts
01-Jul-19 14:35 33.952601 -117.425101 67 4502ft 117kts
01-Jul-19 14:36 33.963956 -117.388332 67 4503ft 116kts
01-Jul-19 14:37 33.973716 -117.351145 59 4501ft 115kts
01-Jul-19 14:38 33.993092 -117.320361 49 4502ft 114kts
01-Jul-19 14:39 33.978103 -117.302633 226 4498ft 108kts
01-Jul-19 14:40 33.976724 -117.337273 274 4502ft 106kts
01-Jul-19 14:41 33.978579 -117.373044 274 4432ft 106kts
01-Jul-19 14:42 33.980238 -117.406828 272 4022ft 99kts
01-Jul-19 14:43 33.979428 -117.440048 265 3645ft 99kts
01-Jul-19 14:44 33.977764 -117.473428 268 3276ft 101kts
01-Jul-19 14:45 33.977443 -117.507003 265 2864ft 100kts
01-Jul-19 14:46 33.976503 -117.540685 269 2263ft 101kts
01-Jul-19 14:47 33.976547 -117.574891 267 1568ft 102kts
01-Jul-19 14:48 33.975949 -117.609282 267 1003ft 96kts
01-Jul-19 14:49 33.975799 -117.635387 269 631ft 49kts
01-Jul-19 14:50 33.976675 -117.639223 342 630ft 2kts
01-Jul-19 14:51 33.977760 -117.643423 359 628ft 9kts
01-Jul-19 14:52 33.978993 -117.642901 359 632ft 0kts
01-Jul-19 14:53 33.978993 -117.642901 359 632ft 0kts
01-Jul-19 14:54 33.978993 -117.642901 359 632ft 0kts
01-Jul-19 14:55 33.978993 -117.642901 359 632ft 0kts
01-Jul-19 14:56 33.978993 -117.642901 359 632ft 0kts
01-Jul-19 14:57 33.978993 -117.642901 359 632ft 0kts
01-Jul-19 14:58 33.978993 -117.642901 359 632ft 0kts
01-Jul-19 14:59 33.978993 -117.642901 359 632ft 0kts
01-Jul-19 15:00 33.978993 -117.642901 359 632ft 0kts
01-Jul-19 15:01 33.978993 -117.642901 359 632ft 0kts
01-Jul-19 15:02 33.978993 -117.642901 359 632ft 0kts
01-Jul-19 15:03 33.978993 -117.642901 359 632ft 0kts
01-Jul-19 15:04 33.978993 -117.642901 359 632ft 0kts
01-Jul-19 15:05 33.978993 -117.642901 359 632ft 0kts

Navigation Log

Ident Type
Flight plan parsing failed, navigation log unavailable